sensor_id;sensor_type;location;lat;lon;timestamp;temperature;humidity
51825;DHT22;37879;52.986;6.282;2023-07-28T00:02:08;18.10;99.90
51825;DHT22;37879;52.986;6.282;2023-07-28T00:04:35;18.20;99.90
51825;DHT22;37879;52.986;6.282;2023-07-28T00:07:01;18.10;99.90
51825;DHT22;37879;52.986;6.282;2023-07-28T00:09:26;18.20;99.90
51825;DHT22;37879;52.986;6.282;2023-07-28T00:11:52;18.10;99.90
51825;DHT22;37879;52.986;6.282;2023-07-28T00:14:18;18.20;99.90
51825;DHT22;37879;52.986;6.282;2023-07-28T00:16:43;18.10;99.90
51825;DHT22;37879;52.986;6.282;2023-07-28T00:19:09;18.10;99.90
51825;DHT22;37879;52.986;6.282;2023-07-28T00:21:35;18.20;99.90
51825;DHT22;37879;52.986;6.282;2023-07-28T00:24:00;18.10;99.90
51825;DHT22;37879;52.986;6.282;2023-07-28T00:26:26;18.20;99.90
51825;DHT22;37879;52.986;6.282;2023-07-28T00:28:52;18.10;99.90
51825;DHT22;37879;52.986;6.282;2023-07-28T00:31:17;18.20;99.90
51825;DHT22;37879;52.986;6.282;2023-07-28T00:33:43;18.00;99.90
51825;DHT22;37879;52.986;6.282;2023-07-28T00:36:09;18.10;99.90
51825;DHT22;37879;52.986;6.282;2023-07-28T00:38:34;18.10;99.90
51825;DHT22;37879;52.986;6.282;2023-07-28T00:41:00;18.20;99.90
51825;DHT22;37879;52.986;6.282;2023-07-28T00:43:25;18.10;99.90
51825;DHT22;37879;52.986;6.282;2023-07-28T00:45:51;18.10;99.90
51825;DHT22;37879;52.986;6.282;2023-07-28T00:48:17;18.10;99.90
51825;DHT22;37879;52.986;6.282;2023-07-28T00:50:47;18.20;99.90
51825;DHT22;37879;52.986;6.282;2023-07-28T00:53:13;18.20;99.90
51825;DHT22;37879;52.986;6.282;2023-07-28T00:55:39;18.20;99.90
51825;DHT22;37879;52.986;6.282;2023-07-28T00:58:06;18.10;99.90
51825;DHT22;37879;52.986;6.282;2023-07-28T01:00:31;18.10;99.90
51825;DHT22;37879;52.986;6.282;2023-07-28T01:02:57;18.20;99.90
51825;DHT22;37879;52.986;6.282;2023-07-28T01:05:33;18.10;99.90
51825;DHT22;37879;52.986;6.282;2023-07-28T01:08:19;18.10;99.90
51825;DHT22;37879;52.986;6.282;2023-07-28T01:10:46;18.10;99.90
51825;DHT22;37879;52.986;6.282;2023-07-28T01:13:12;18.10;99.90
51825;DHT22;37879;52.986;6.282;2023-07-28T01:15:38;18.10;99.90
51825;DHT22;37879;52.986;6.282;2023-07-28T01:18:04;18.10;99.90
51825;DHT22;37879;52.986;6.282;2023-07-28T01:20:31;18.10;99.90
51825;DHT22;37879;52.986;6.282;2023-07-28T01:23:15;18.10;99.90
51825;DHT22;37879;52.986;6.282;2023-07-28T01:28:33;18.10;99.90
51825;DHT22;37879;52.986;6.282;2023-07-28T01:31:02;18.10;99.90
51825;DHT22;37879;52.986;6.282;2023-07-28T01:33:28;18.10;99.90
51825;DHT22;37879;52.986;6.282;2023-07-28T01:35:54;18.10;99.90
51825;DHT22;37879;52.986;6.282;2023-07-28T01:38:19;18.10;99.90
51825;DHT22;37879;52.986;6.282;2023-07-28T01:40:45;18.10;99.90
51825;DHT22;37879;52.986;6.282;2023-07-28T01:43:11;18.10;99.90
51825;DHT22;37879;52.986;6.282;2023-07-28T01:45:36;18.10;99.90
51825;DHT22;37879;52.986;6.282;2023-07-28T01:48:02;18.10;99.90
51825;DHT22;37879;52.986;6.282;2023-07-28T01:50:28;18.10;99.90
51825;DHT22;37879;52.986;6.282;2023-07-28T01:52:55;18.10;99.90
51825;DHT22;37879;52.986;6.282;2023-07-28T01:55:20;18.10;99.90
51825;DHT22;37879;52.986;6.282;2023-07-28T01:58:00;18.10;99.90
51825;DHT22;37879;52.986;6.282;2023-07-28T02:00:26;18.10;99.90
51825;DHT22;37879;52.986;6.282;2023-07-28T02:02:52;18.10;99.90
51825;DHT22;37879;52.986;6.282;2023-07-28T02:05:19;18.10;99.90
51825;DHT22;37879;52.986;6.282;2023-07-28T02:07:45;18.10;99.90
51825;DHT22;37879;52.986;6.282;2023-07-28T02:10:10;18.10;99.90
51825;DHT22;37879;52.986;6.282;2023-07-28T02:12:37;18.10;99.90
51825;DHT22;37879;52.986;6.282;2023-07-28T02:15:04;18.20;99.90
51825;DHT22;37879;52.986;6.282;2023-07-28T02:17:30;18.10;99.90
51825;DHT22;37879;52.986;6.282;2023-07-28T02:19:55;18.10;99.90
51825;DHT22;37879;52.986;6.282;2023-07-28T02:22:21;18.10;99.90
51825;DHT22;37879;52.986;6.282;2023-07-28T02:24:47;18.10;99.90
51825;DHT22;37879;52.986;6.282;2023-07-28T02:27:12;18.10;99.90
51825;DHT22;37879;52.986;6.282;2023-07-28T02:29:38;18.00;99.90
51825;DHT22;37879;52.986;6.282;2023-07-28T02:32:04;18.10;99.90
51825;DHT22;37879;52.986;6.282;2023-07-28T02:34:30;18.10;99.90
51825;DHT22;37879;52.986;6.282;2023-07-28T02:36:57;18.10;99.90
51825;DHT22;37879;52.986;6.282;2023-07-28T02:39:22;18.10;99.90
51825;DHT22;37879;52.986;6.282;2023-07-28T02:41:48;18.10;99.90
51825;DHT22;37879;52.986;6.282;2023-07-28T02:44:14;18.10;99.90
51825;DHT22;37879;52.986;6.282;2023-07-28T02:46:39;18.10;99.90
51825;DHT22;37879;52.986;6.282;2023-07-28T02:49:05;18.10;99.90
51825;DHT22;37879;52.986;6.282;2023-07-28T02:51:31;18.10;99.90
51825;DHT22;37879;52.986;6.282;2023-07-28T02:53:56;18.00;99.90
51825;DHT22;37879;52.986;6.282;2023-07-28T02:56:22;18.00;99.90
51825;DHT22;37879;52.986;6.282;2023-07-28T02:58:51;18.00;99.90
51825;DHT22;37879;52.986;6.282;2023-07-28T03:01:16;18.00;99.90
51825;DHT22;37879;52.986;6.282;2023-07-28T03:03:43;18.00;99.90
51825;DHT22;37879;52.986;6.282;2023-07-28T03:06:09;18.00;99.90
51825;DHT22;37879;52.986;6.282;2023-07-28T03:08:35;18.00;99.90
51825;DHT22;37879;52.986;6.282;2023-07-28T03:11:00;18.00;99.90
51825;DHT22;37879;52.986;6.282;2023-07-28T03:13:29;18.00;99.90
51825;DHT22;37879;52.986;6.282;2023-07-28T03:15:55;18.00;99.90
51825;DHT22;37879;52.986;6.282;2023-07-28T03:18:20;18.00;99.90
51825;DHT22;37879;52.986;6.282;2023-07-28T03:20:46;18.00;99.90
51825;DHT22;37879;52.986;6.282;2023-07-28T03:23:12;18.00;99.90
51825;DHT22;37879;52.986;6.282;2023-07-28T03:25:38;17.90;99.90
51825;DHT22;37879;52.986;6.282;2023-07-28T03:28:04;17.90;99.90
51825;DHT22;37879;52.986;6.282;2023-07-28T03:30:29;17.90;99.90
51825;DHT22;37879;52.986;6.282;2023-07-28T03:32:55;18.00;99.90
51825;DHT22;37879;52.986;6.282;2023-07-28T03:35:21;18.00;99.90
51825;DHT22;37879;52.986;6.282;2023-07-28T03:37:46;18.00;99.90
51825;DHT22;37879;52.986;6.282;2023-07-28T03:40:12;18.00;99.90
51825;DHT22;37879;52.986;6.282;2023-07-28T03:42:38;17.90;99.90
51825;DHT22;37879;52.986;6.282;2023-07-28T03:45:04;18.00;99.90
51825;DHT22;37879;52.986;6.282;2023-07-28T03:47:30;18.00;99.90
51825;DHT22;37879;52.986;6.282;2023-07-28T03:49:55;18.00;99.90
51825;DHT22;37879;52.986;6.282;2023-07-28T03:52:21;17.90;99.90
51825;DHT22;37879;52.986;6.282;2023-07-28T03:54:46;18.00;99.90
51825;DHT22;37879;52.986;6.282;2023-07-28T03:57:12;18.00;99.90
51825;DHT22;37879;52.986;6.282;2023-07-28T03:59:38;18.00;99.90
51825;DHT22;37879;52.986;6.282;2023-07-28T04:02:03;18.00;99.90
51825;DHT22;37879;52.986;6.282;2023-07-28T04:04:29;18.00;99.90
51825;DHT22;37879;52.986;6.282;2023-07-28T04:06:55;18.00;99.90
51825;DHT22;37879;52.986;6.282;2023-07-28T04:09:23;18.00;99.90
51825;DHT22;37879;52.986;6.282;2023-07-28T04:11:49;18.00;99.90
51825;DHT22;37879;52.986;6.282;2023-07-28T04:14:15;18.00;99.90
51825;DHT22;37879;52.986;6.282;2023-07-28T04:16:40;18.00;99.90
51825;DHT22;37879;52.986;6.282;2023-07-28T04:19:06;18.00;99.90
51825;DHT22;37879;52.986;6.282;2023-07-28T04:21:32;18.00;99.90
51825;DHT22;37879;52.986;6.282;2023-07-28T04:23:58;18.00;99.90
51825;DHT22;37879;52.986;6.282;2023-07-28T04:26:24;18.00;99.90
51825;DHT22;37879;52.986;6.282;2023-07-28T04:28:50;18.10;99.90
51825;DHT22;37879;52.986;6.282;2023-07-28T04:31:16;18.10;99.90
51825;DHT22;37879;52.986;6.282;2023-07-28T04:33:42;18.10;99.90
51825;DHT22;37879;52.986;6.282;2023-07-28T04:36:08;18.10;99.90
51825;DHT22;37879;52.986;6.282;2023-07-28T04:38:34;18.10;99.90
51825;DHT22;37879;52.986;6.282;2023-07-28T04:41:00;18.10;99.90
51825;DHT22;37879;52.986;6.282;2023-07-28T04:43:25;18.10;99.90
51825;DHT22;37879;52.986;6.282;2023-07-28T04:45:51;18.10;99.90
51825;DHT22;37879;52.986;6.282;2023-07-28T04:48:17;18.10;99.90
51825;DHT22;37879;52.986;6.282;2023-07-28T04:50:44;18.10;99.90
51825;DHT22;37879;52.986;6.282;2023-07-28T04:53:10;18.10;99.90
51825;DHT22;37879;52.986;6.282;2023-07-28T04:55:36;18.20;99.90
51825;DHT22;37879;52.986;6.282;2023-07-28T04:58:01;18.10;99.90
51825;DHT22;37879;52.986;6.282;2023-07-28T05:00:27;18.20;99.90
51825;DHT22;37879;52.986;6.282;2023-07-28T05:02:53;18.20;99.90
51825;DHT22;37879;52.986;6.282;2023-07-28T05:05:18;18.20;99.90
51825;DHT22;37879;52.986;6.282;2023-07-28T05:07:44;18.20;99.90
51825;DHT22;37879;52.986;6.282;2023-07-28T05:10:10;18.20;99.90
51825;DHT22;37879;52.986;6.282;2023-07-28T05:12:35;18.20;99.90
51825;DHT22;37879;52.986;6.282;2023-07-28T05:15:01;18.20;99.90
51825;DHT22;37879;52.986;6.282;2023-07-28T05:17:27;18.20;99.90
51825;DHT22;37879;52.986;6.282;2023-07-28T05:19:52;18.20;99.90
51825;DHT22;37879;52.986;6.282;2023-07-28T05:22:18;18.20;99.90
51825;DHT22;37879;52.986;6.282;2023-07-28T05:24:44;18.30;99.90
51825;DHT22;37879;52.986;6.282;2023-07-28T05:27:11;18.20;99.90
51825;DHT22;37879;52.986;6.282;2023-07-28T05:29:36;18.30;99.90
51825;DHT22;37879;52.986;6.282;2023-07-28T05:32:02;18.30;99.90
51825;DHT22;37879;52.986;6.282;2023-07-28T05:34:29;18.30;99.90
51825;DHT22;37879;52.986;6.282;2023-07-28T05:36:54;18.30;99.90
51825;DHT22;37879;52.986;6.282;2023-07-28T05:39:20;18.40;99.90
51825;DHT22;37879;52.986;6.282;2023-07-28T05:41:46;18.40;99.90
51825;DHT22;37879;52.986;6.282;2023-07-28T05:44:11;18.40;99.90
51825;DHT22;37879;52.986;6.282;2023-07-28T05:46:37;18.40;99.90
51825;DHT22;37879;52.986;6.282;2023-07-28T05:49:03;18.50;99.90
51825;DHT22;37879;52.986;6.282;2023-07-28T05:51:28;18.00;99.90
51825;DHT22;37879;52.986;6.282;2023-07-28T05:53:54;18.60;99.90
51825;DHT22;37879;52.986;6.282;2023-07-28T05:56:20;18.60;99.90
51825;DHT22;37879;52.986;6.282;2023-07-28T05:58:49;18.70;99.90
51825;DHT22;37879;52.986;6.282;2023-07-28T06:01:15;18.80;99.90
51825;DHT22;37879;52.986;6.282;2023-07-28T06:03:41;18.90;99.90
51825;DHT22;37879;52.986;6.282;2023-07-28T06:06:06;18.80;99.90
51825;DHT22;37879;52.986;6.282;2023-07-28T06:08:33;19.00;99.90
51825;DHT22;37879;52.986;6.282;2023-07-28T06:10:59;19.00;99.90
51825;DHT22;37879;52.986;6.282;2023-07-28T06:13:25;19.10;99.90
51825;DHT22;37879;52.986;6.282;2023-07-28T06:15:53;19.10;99.90
51825;DHT22;37879;52.986;6.282;2023-07-28T06:18:20;19.10;99.90
51825;DHT22;37879;52.986;6.282;2023-07-28T06:20:48;19.20;99.90
51825;DHT22;37879;52.986;6.282;2023-07-28T06:23:14;19.30;99.90
51825;DHT22;37879;52.986;6.282;2023-07-28T06:25:40;19.50;99.90
51825;DHT22;37879;52.986;6.282;2023-07-28T06:28:11;19.60;99.90
51825;DHT22;37879;52.986;6.282;2023-07-28T06:30:37;19.70;99.90
51825;DHT22;37879;52.986;6.282;2023-07-28T06:33:06;19.80;99.90
51825;DHT22;37879;52.986;6.282;2023-07-28T06:35:32;19.90;99.90
51825;DHT22;37879;52.986;6.282;2023-07-28T06:37:59;19.90;99.90
51825;DHT22;37879;52.986;6.282;2023-07-28T06:40:25;19.90;99.90
51825;DHT22;37879;52.986;6.282;2023-07-28T06:42:50;19.90;99.90
51825;DHT22;37879;52.986;6.282;2023-07-28T06:45:16;19.90;99.90
51825;DHT22;37879;52.986;6.282;2023-07-28T06:47:42;20.00;99.90
51825;DHT22;37879;52.986;6.282;2023-07-28T06:50:08;20.10;99.90
51825;DHT22;37879;52.986;6.282;2023-07-28T06:52:34;20.30;99.90
51825;DHT22;37879;52.986;6.282;2023-07-28T06:55:00;20.40;99.90
51825;DHT22;37879;52.986;6.282;2023-07-28T06:57:25;20.50;99.90
51825;DHT22;37879;52.986;6.282;2023-07-28T06:59:51;20.50;99.90
51825;DHT22;37879;52.986;6.282;2023-07-28T07:02:16;20.50;99.90
51825;DHT22;37879;52.986;6.282;2023-07-28T07:04:42;20.40;99.90
51825;DHT22;37879;52.986;6.282;2023-07-28T07:07:08;20.40;99.90
51825;DHT22;37879;52.986;6.282;2023-07-28T07:09:34;20.40;99.90
51825;DHT22;37879;52.986;6.282;2023-07-28T07:12:00;20.50;99.90
51825;DHT22;37879;52.986;6.282;2023-07-28T07:14:26;20.50;99.90
51825;DHT22;37879;52.986;6.282;2023-07-28T07:16:51;20.50;99.90
51825;DHT22;37879;52.986;6.282;2023-07-28T07:19:17;20.60;99.90
51825;DHT22;37879;52.986;6.282;2023-07-28T07:21:43;20.60;99.90
51825;DHT22;37879;52.986;6.282;2023-07-28T07:24:10;20.60;99.90
51825;DHT22;37879;52.986;6.282;2023-07-28T07:26:39;20.60;99.90
51825;DHT22;37879;52.986;6.282;2023-07-28T07:29:05;20.60;99.90
51825;DHT22;37879;52.986;6.282;2023-07-28T07:31:31;20.60;99.90
51825;DHT22;37879;52.986;6.282;2023-07-28T07:33:56;20.60;99.90
51825;DHT22;37879;52.986;6.282;2023-07-28T07:36:22;20.70;99.90
51825;DHT22;37879;52.986;6.282;2023-07-28T07:38:48;20.80;99.90
51825;DHT22;37879;52.986;6.282;2023-07-28T07:41:16;20.90;99.90
51825;DHT22;37879;52.986;6.282;2023-07-28T07:43:46;20.90;99.90
51825;DHT22;37879;52.986;6.282;2023-07-28T07:46:12;20.90;99.90
51825;DHT22;37879;52.986;6.282;2023-07-28T07:48:38;20.90;99.90
51825;DHT22;37879;52.986;6.282;2023-07-28T07:51:03;20.80;99.90
51825;DHT22;37879;52.986;6.282;2023-07-28T07:53:29;20.80;99.90
51825;DHT22;37879;52.986;6.282;2023-07-28T07:55:55;20.80;99.90
51825;DHT22;37879;52.986;6.282;2023-07-28T07:58:20;20.70;99.90
51825;DHT22;37879;52.986;6.282;2023-07-28T08:00:46;20.70;99.90
51825;DHT22;37879;52.986;6.282;2023-07-28T08:03:12;20.80;99.90
51825;DHT22;37879;52.986;6.282;2023-07-28T08:05:37;20.80;99.90
51825;DHT22;37879;52.986;6.282;2023-07-28T08:08:03;20.80;99.90
51825;DHT22;37879;52.986;6.282;2023-07-28T08:10:30;20.90;99.90
51825;DHT22;37879;52.986;6.282;2023-07-28T08:12:57;21.00;99.90
51825;DHT22;37879;52.986;6.282;2023-07-28T08:15:23;21.10;99.90
51825;DHT22;37879;52.986;6.282;2023-07-28T08:17:49;21.00;99.90
51825;DHT22;37879;52.986;6.282;2023-07-28T08:20:15;21.10;99.90
51825;DHT22;37879;52.986;6.282;2023-07-28T08:22:41;21.20;99.90
51825;DHT22;37879;52.986;6.282;2023-07-28T08:25:09;21.20;99.90
51825;DHT22;37879;52.986;6.282;2023-07-28T08:27:35;21.30;99.90
51825;DHT22;37879;52.986;6.282;2023-07-28T08:30:00;21.30;99.90
51825;DHT22;37879;52.986;6.282;2023-07-28T08:32:26;21.40;99.90
51825;DHT22;37879;52.986;6.282;2023-07-28T08:34:53;21.40;99.90
51825;DHT22;37879;52.986;6.282;2023-07-28T08:37:19;21.50;99.90
51825;DHT22;37879;52.986;6.282;2023-07-28T08:39:45;21.60;99.90
51825;DHT22;37879;52.986;6.282;2023-07-28T08:42:10;21.60;99.90
51825;DHT22;37879;52.986;6.282;2023-07-28T08:44:36;21.60;99.90
51825;DHT22;37879;52.986;6.282;2023-07-28T08:47:03;21.60;99.90
51825;DHT22;37879;52.986;6.282;2023-07-28T08:49:32;21.60;99.90
51825;DHT22;37879;52.986;6.282;2023-07-28T08:52:01;21.60;99.90
51825;DHT22;37879;52.986;6.282;2023-07-28T08:54:27;21.50;99.90
51825;DHT22;37879;52.986;6.282;2023-07-28T08:56:53;21.60;99.90
51825;DHT22;37879;52.986;6.282;2023-07-28T08:59:26;21.60;99.90
51825;DHT22;37879;52.986;6.282;2023-07-28T09:01:53;21.60;99.90
51825;DHT22;37879;52.986;6.282;2023-07-28T09:04:20;21.70;99.90
51825;DHT22;37879;52.986;6.282;2023-07-28T09:06:47;21.70;99.90
51825;DHT22;37879;52.986;6.282;2023-07-28T09:09:17;21.80;99.90
51825;DHT22;37879;52.986;6.282;2023-07-28T09:11:47;21.90;99.90
51825;DHT22;37879;52.986;6.282;2023-07-28T09:14:14;22.00;99.90
51825;DHT22;37879;52.986;6.282;2023-07-28T09:16:50;22.00;99.90
51825;DHT22;37879;52.986;6.282;2023-07-28T09:19:15;22.00;99.90
51825;DHT22;37879;52.986;6.282;2023-07-28T09:21:44;22.00;99.90
51825;DHT22;37879;52.986;6.282;2023-07-28T09:24:13;22.00;99.90
51825;DHT22;37879;52.986;6.282;2023-07-28T09:26:46;22.00;99.90
51825;DHT22;37879;52.986;6.282;2023-07-28T09:29:20;22.10;99.90
51825;DHT22;37879;52.986;6.282;2023-07-28T09:31:47;22.10;99.90
51825;DHT22;37879;52.986;6.282;2023-07-28T09:34:24;22.20;99.90
51825;DHT22;37879;52.986;6.282;2023-07-28T09:36:59;22.20;99.90
51825;DHT22;37879;52.986;6.282;2023-07-28T09:39:25;22.20;99.90
51825;DHT22;37879;52.986;6.282;2023-07-28T09:41:51;22.20;99.90
51825;DHT22;37879;52.986;6.282;2023-07-28T09:44:17;22.30;99.90
51825;DHT22;37879;52.986;6.282;2023-07-28T09:46:56;22.30;99.90
51825;DHT22;37879;52.986;6.282;2023-07-28T09:49:29;22.40;99.90
51825;DHT22;37879;52.986;6.282;2023-07-28T09:52:04;22.40;99.90
51825;DHT22;37879;52.986;6.282;2023-07-28T09:54:30;22.50;99.90
51825;DHT22;37879;52.986;6.282;2023-07-28T09:56:59;22.50;99.90
51825;DHT22;37879;52.986;6.282;2023-07-28T09:59:33;22.50;99.90
51825;DHT22;37879;52.986;6.282;2023-07-28T10:02:01;22.50;99.90
51825;DHT22;37879;52.986;6.282;2023-07-28T10:04:27;22.40;99.90
51825;DHT22;37879;52.986;6.282;2023-07-28T10:06:55;22.40;99.90
51825;DHT22;37879;52.986;6.282;2023-07-28T10:09:28;22.30;99.90
51825;DHT22;37879;52.986;6.282;2023-07-28T10:11:54;22.30;99.90
51825;DHT22;37879;52.986;6.282;2023-07-28T10:14:36;22.30;99.90
51825;DHT22;37879;52.986;6.282;2023-07-28T10:17:06;22.40;99.90
51825;DHT22;37879;52.986;6.282;2023-07-28T10:19:36;22.60;99.90
51825;DHT22;37879;52.986;6.282;2023-07-28T10:22:06;22.70;99.90
51825;DHT22;37879;52.986;6.282;2023-07-28T10:24:54;22.80;99.90
51825;DHT22;37879;52.986;6.282;2023-07-28T10:27:31;23.00;99.90
51825;DHT22;37879;52.986;6.282;2023-07-28T10:29:58;23.10;99.90
51825;DHT22;37879;52.986;6.282;2023-07-28T10:32:28;23.20;99.90
51825;DHT22;37879;52.986;6.282;2023-07-28T10:37:32;23.30;99.90
51825;DHT22;37879;52.986;6.282;2023-07-28T10:42:52;23.20;99.90
51825;DHT22;37879;52.986;6.282;2023-07-28T10:45:19;23.20;99.90
51825;DHT22;37879;52.986;6.282;2023-07-28T10:47:45;23.20;99.90
51825;DHT22;37879;52.986;6.282;2023-07-28T10:50:12;23.20;99.90
51825;DHT22;37879;52.986;6.282;2023-07-28T10:52:45;23.30;99.90
51825;DHT22;37879;52.986;6.282;2023-07-28T10:55:18;23.40;99.90
51825;DHT22;37879;52.986;6.282;2023-07-28T10:57:47;23.40;99.90
51825;DHT22;37879;52.986;6.282;2023-07-28T11:00:14;23.40;99.90
51825;DHT22;37879;52.986;6.282;2023-07-28T11:03:08;23.40;99.90
51825;DHT22;37879;52.986;6.282;2023-07-28T11:05:33;23.40;99.90
51825;DHT22;37879;52.986;6.282;2023-07-28T11:08:00;23.40;99.90
51825;DHT22;37879;52.986;6.282;2023-07-28T11:10:31;23.50;99.90
51825;DHT22;37879;52.986;6.282;2023-07-28T11:12:59;23.60;99.90
51825;DHT22;37879;52.986;6.282;2023-07-28T11:15:25;23.70;99.90
51825;DHT22;37879;52.986;6.282;2023-07-28T11:17:52;23.80;99.90
51825;DHT22;37879;52.986;6.282;2023-07-28T11:20:26;23.90;99.90
51825;DHT22;37879;52.986;6.282;2023-07-28T11:23:01;24.00;99.90
51825;DHT22;37879;52.986;6.282;2023-07-28T11:25:30;24.00;99.90
51825;DHT22;37879;52.986;6.282;2023-07-28T11:27:56;24.00;99.90
51825;DHT22;37879;52.986;6.282;2023-07-28T11:30:22;24.10;99.90
51825;DHT22;37879;52.986;6.282;2023-07-28T11:32:50;24.30;99.90
51825;DHT22;37879;52.986;6.282;2023-07-28T11:35:18;24.40;99.90
51825;DHT22;37879;52.986;6.282;2023-07-28T11:37:46;24.50;99.90
51825;DHT22;37879;52.986;6.282;2023-07-28T11:40:14;24.50;99.90
51825;DHT22;37879;52.986;6.282;2023-07-28T11:42:54;24.40;99.90
51825;DHT22;37879;52.986;6.282;2023-07-28T11:45:21;24.40;99.90
51825;DHT22;37879;52.986;6.282;2023-07-28T11:48:03;24.50;99.90
51825;DHT22;37879;52.986;6.282;2023-07-28T11:50:37;24.40;99.90
51825;DHT22;37879;52.986;6.282;2023-07-28T11:53:04;24.40;99.90
51825;DHT22;37879;52.986;6.282;2023-07-28T11:55:30;24.50;99.90
51825;DHT22;37879;52.986;6.282;2023-07-28T11:57:55;24.70;99.90
51825;DHT22;37879;52.986;6.282;2023-07-28T12:00:29;24.80;99.90
51825;DHT22;37879;52.986;6.282;2023-07-28T12:05:31;24.50;99.90
51825;DHT22;37879;52.986;6.282;2023-07-28T12:07:58;24.50;99.90
51825;DHT22;37879;52.986;6.282;2023-07-28T12:10:24;24.70;99.90
51825;DHT22;37879;52.986;6.282;2023-07-28T12:12:50;24.80;99.90
51825;DHT22;37879;52.986;6.282;2023-07-28T12:15:22;25.10;99.90
51825;DHT22;37879;52.986;6.282;2023-07-28T12:18:09;25.40;99.90
51825;DHT22;37879;52.986;6.282;2023-07-28T12:20:37;25.60;99.90
51825;DHT22;37879;52.986;6.282;2023-07-28T12:23:04;25.70;99.90
51825;DHT22;37879;52.986;6.282;2023-07-28T12:25:29;25.50;99.90
51825;DHT22;37879;52.986;6.282;2023-07-28T12:27:55;25.40;99.90
51825;DHT22;37879;52.986;6.282;2023-07-28T12:30:22;25.40;99.90
51825;DHT22;37879;52.986;6.282;2023-07-28T12:32:48;25.40;99.90
51825;DHT22;37879;52.986;6.282;2023-07-28T12:35:14;25.40;99.90
51825;DHT22;37879;52.986;6.282;2023-07-28T12:37:40;25.40;99.90
51825;DHT22;37879;52.986;6.282;2023-07-28T12:40:07;25.30;99.90
51825;DHT22;37879;52.986;6.282;2023-07-28T12:42:34;25.20;99.90
51825;DHT22;37879;52.986;6.282;2023-07-28T12:44:59;25.20;99.90
51825;DHT22;37879;52.986;6.282;2023-07-28T12:47:25;25.40;99.90
51825;DHT22;37879;52.986;6.282;2023-07-28T12:49:51;25.50;99.90
51825;DHT22;37879;52.986;6.282;2023-07-28T12:52:17;25.50;99.90
51825;DHT22;37879;52.986;6.282;2023-07-28T12:54:42;25.50;99.90
51825;DHT22;37879;52.986;6.282;2023-07-28T12:57:09;25.60;99.90
51825;DHT22;37879;52.986;6.282;2023-07-28T12:59:36;25.70;99.90
51825;DHT22;37879;52.986;6.282;2023-07-28T13:02:02;25.80;99.90
51825;DHT22;37879;52.986;6.282;2023-07-28T13:04:28;25.80;99.90
51825;DHT22;37879;52.986;6.282;2023-07-28T13:06:54;25.50;99.90
51825;DHT22;37879;52.986;6.282;2023-07-28T13:09:20;25.40;99.90
51825;DHT22;37879;52.986;6.282;2023-07-28T13:11:45;25.40;99.90
51825;DHT22;37879;52.986;6.282;2023-07-28T13:14:11;25.50;99.90
51825;DHT22;37879;52.986;6.282;2023-07-28T13:16:37;25.70;99.90
51825;DHT22;37879;52.986;6.282;2023-07-28T13:19:04;25.80;99.90
51825;DHT22;37879;52.986;6.282;2023-07-28T13:21:29;26.10;99.90
51825;DHT22;37879;52.986;6.282;2023-07-28T13:23:55;26.20;99.90
51825;DHT22;37879;52.986;6.282;2023-07-28T13:26:21;26.20;99.90
51825;DHT22;37879;52.986;6.282;2023-07-28T13:28:47;26.20;99.90
51825;DHT22;37879;52.986;6.282;2023-07-28T13:31:15;26.10;99.90
51825;DHT22;37879;52.986;6.282;2023-07-28T13:33:42;26.10;99.90
51825;DHT22;37879;52.986;6.282;2023-07-28T13:36:08;26.00;99.90
51825;DHT22;37879;52.986;6.282;2023-07-28T13:38:34;26.00;99.90
51825;DHT22;37879;52.986;6.282;2023-07-28T13:41:00;26.00;99.90
51825;DHT22;37879;52.986;6.282;2023-07-28T13:43:25;26.10;99.90
51825;DHT22;37879;52.986;6.282;2023-07-28T13:45:51;26.20;99.90
51825;DHT22;37879;52.986;6.282;2023-07-28T13:48:17;26.40;99.90
51825;DHT22;37879;52.986;6.282;2023-07-28T13:50:42;26.40;99.90
51825;DHT22;37879;52.986;6.282;2023-07-28T13:53:09;26.40;99.90
51825;DHT22;37879;52.986;6.282;2023-07-28T13:55:35;26.20;99.90
51825;DHT22;37879;52.986;6.282;2023-07-28T13:58:00;26.10;99.90
51825;DHT22;37879;52.986;6.282;2023-07-28T14:00:26;26.10;99.90
51825;DHT22;37879;52.986;6.282;2023-07-28T14:02:52;26.20;99.90
51825;DHT22;37879;52.986;6.282;2023-07-28T14:05:17;26.40;99.90
51825;DHT22;37879;52.986;6.282;2023-07-28T14:07:45;26.40;99.90
51825;DHT22;37879;52.986;6.282;2023-07-28T14:10:12;26.40;99.90
51825;DHT22;37879;52.986;6.282;2023-07-28T14:12:37;26.40;99.90
51825;DHT22;37879;52.986;6.282;2023-07-28T14:15:07;26.10;99.90
51825;DHT22;37879;52.986;6.282;2023-07-28T14:17:33;25.90;99.90
51825;DHT22;37879;52.986;6.282;2023-07-28T14:19:59;25.90;99.90
51825;DHT22;37879;52.986;6.282;2023-07-28T14:22:25;26.00;99.90
51825;DHT22;37879;52.986;6.282;2023-07-28T14:24:50;26.10;99.90
51825;DHT22;37879;52.986;6.282;2023-07-28T14:27:16;26.20;99.90
51825;DHT22;37879;52.986;6.282;2023-07-28T14:29:41;26.10;99.90
51825;DHT22;37879;52.986;6.282;2023-07-28T14:32:07;26.00;99.90
51825;DHT22;37879;52.986;6.282;2023-07-28T14:34:34;25.90;99.90
51825;DHT22;37879;52.986;6.282;2023-07-28T14:37:05;25.90;99.90
51825;DHT22;37879;52.986;6.282;2023-07-28T14:39:31;26.20;99.90
51825;DHT22;37879;52.986;6.282;2023-07-28T14:41:57;26.20;99.90
51825;DHT22;37879;52.986;6.282;2023-07-28T14:44:23;26.20;99.90
51825;DHT22;37879;52.986;6.282;2023-07-28T14:46:48;26.30;99.90
51825;DHT22;37879;52.986;6.282;2023-07-28T14:49:14;26.30;99.90
51825;DHT22;37879;52.986;6.282;2023-07-28T14:51:40;26.40;99.90
51825;DHT22;37879;52.986;6.282;2023-07-28T14:54:06;26.50;99.90
51825;DHT22;37879;52.986;6.282;2023-07-28T14:56:31;26.50;99.90
51825;DHT22;37879;52.986;6.282;2023-07-28T14:58:58;26.60;99.90
51825;DHT22;37879;52.986;6.282;2023-07-28T15:01:26;26.70;99.90
51825;DHT22;37879;52.986;6.282;2023-07-28T15:03:52;26.70;99.90
51825;DHT22;37879;52.986;6.282;2023-07-28T15:06:18;26.50;99.90
51825;DHT22;37879;52.986;6.282;2023-07-28T15:08:44;26.50;99.90
51825;DHT22;37879;52.986;6.282;2023-07-28T15:11:09;26.60;99.90
51825;DHT22;37879;52.986;6.282;2023-07-28T15:13:35;26.60;99.90
51825;DHT22;37879;52.986;6.282;2023-07-28T15:16:01;26.50;99.90
51825;DHT22;37879;52.986;6.282;2023-07-28T15:18:26;26.50;99.90
51825;DHT22;37879;52.986;6.282;2023-07-28T15:20:52;26.50;99.90
51825;DHT22;37879;52.986;6.282;2023-07-28T15:23:24;26.60;99.90
51825;DHT22;37879;52.986;6.282;2023-07-28T15:25:50;26.60;99.90
51825;DHT22;37879;52.986;6.282;2023-07-28T15:28:18;26.60;99.90
51825;DHT22;37879;52.986;6.282;2023-07-28T15:30:43;26.50;99.90
51825;DHT22;37879;52.986;6.282;2023-07-28T15:33:11;26.40;99.90
51825;DHT22;37879;52.986;6.282;2023-07-28T15:35:37;26.40;99.90
51825;DHT22;37879;52.986;6.282;2023-07-28T15:38:02;26.30;99.90
51825;DHT22;37879;52.986;6.282;2023-07-28T15:40:29;26.20;99.90